Seitenverwaltung

Live am Platz

Die Bilder unserer Webcams werden alle 5 Minuten aktualisiert.

Sonnenaufgang:

07:00 UTC / 08:00 Lokal

Sonnenuntergang:

15:33 UTC / 16:33 Lokal

METAR (12.12.2019 00:50 UTC):

EDNY 112350Z AUTO 26003KT 230V290 9999 // BKN013/// BKN023/// OVC026/// 03/02 Q1008
MVFR

TAF (12.12.2019 00:00 UTC):

TAF EDNY 112300Z 1200/1224 24008KT 9999 SCT014 BKN025 TEMPO 1200/1208 BKN014 PROB30 TEMPO 1208/1211 SHRA BKN014 BKN020CB BECMG 1214/1216 VRB03KT

Alle Angaben unverbindlich und ohne Gewähr. Zeiten genähert.

Für den Verkehrslandeplatz Konstanz werden keine offiziellen Wetterinformationen ausgegeben. Daher werden zur Orientierung Daten des nahegelegenen Flughafens Friedrichshafen dargestellt.

Flugwetterdaten zur Verfügung gestellt von wippich.aero.